LIMZ/CUF METAR and TAF weather

Enter ICAO airport designator
Station Type Date Time Source
LIMZ METAR 2021/09/16 10:20 UTC NOAA

LIMZ 161020Z AUTO VRB02KT 9999 ///////// 22/18 Q1016


Station Type Date Time Source
LIMZ Decoded METAR 2021/09/16 10:20 UTC NOAA

Cuneo / Levaldigi, Italy (LIMZ) 44-32-47N 007-37-20E
Sep 16, 2021 - 06:20 AM EDT / 2021.09.16 1020 UTC
Wind: Variable at 2 MPH (2 KT):0
Visibility: greater than 7 mile(s):0
Temperature: 71 F (22 C)
Dew Point: 64 F (18 C)
Relative Humidity: 78%
Pressure (altimeter): 30.00 in. Hg (1016 hPa)
ob: LIMZ 161020Z AUTO VRB02KT 9999 ///////// 22/18 Q1016
cycle: 10

Station Type Date Time Source
LIMZ TAF 2021/09/16 06:24 UTC NOAA

TAF LIMZ 160500Z 1606/1706 VRB05KT 9999 SCT025 BKN050
TEMPO 1606/1616 4000 TSRA

Example: see airport list